Johan Hjort — LDGJ — position and weather

sailwx.info

Track history (hours):
 
Tides and Currents Weather Stations Pressure Air Temp Water Temp Dewpoint Dewpoint Depression Visibility Wind Speed Wind Dir Waves Ship Positions

Oceanographic research ship Johan Hjort (Norway)

Detailed information on ship capabilities available from University of Delaware's Ocean Information Center and ARCUS's ALIAS (Arctic Logistics Information and Support) project.

Last reported at 2020-Jan-28 18:00 UTC. Time now 2020-Jan-28 18:58 UTC.
Position N 69°36' E 018°54'.

MMSI: 257139000.

Wind from 190 at 14 knots

Barometer 999.6 mb
Air temperature -3.7 ° C
Dewpoint -12.4 ° C
Water temperature 3.3 ° C

Date/timePositionNaut miles runAvg speedWind from/ knotsBaromVisibWave heightAir tempDewpointWater temp
2020-Jan-28 18:00N 69°36' E 018°54'3162.7 190 / 14999.6 -3.7-12.4 3.3
2020-Jan-28 17:58N 69°39' E 018°58'3 3.3
2020-Jan-28 17:00N 69°36' E 018°54'0 0.0 190 / 12999.3 -3.3-12.8 3.4
2020-Jan-28 16:00N 69°36' E 018°54'6 6.0 160 / 4998.7 -3.1-13.6 3.3
2020-Jan-28 15:00N 69°30' E 018°54'2 1.9 170 / 25999.2 -2.5-12.2 2.7
2020-Jan-28 14:00N 69°29' E 018°59'5563.6
2020-Jan-28 14:00N 69°24' E 018°54'511.0 180 / 21999.1 -3.8-13.1 2.6
2020-Jan-28 13:30N 69°29' E 018°59'510.6
2020-Jan-28 13:00N 69°24' E 018°54'0 0.0 170 / 19999.3 -3.2-13.0 2.7
2020-Jan-28 12:00N 69°24' E 018°54'5 5.4 170 / 17999.3 -3.3-13.1 2.7
2020-Jan-28 11:00N 69°29' E 018°59'5668.6
2020-Jan-28 11:00N 69°24' E 018°54'0 0.0 170 / 21999.7 -3.3-13.2 2.7
2020-Jan-28 10:00N 69°24' E 018°54'0 0.0 170 / 231000.3 -3.8-13.6 2.6
2020-Jan-28 09:00N 69°24' E 018°54'0 0.0 170 / 231000.7 -4.0-13.3 2.5
2020-Jan-28 08:00N 69°24' E 018°54'0 0.0 170 / 161001.2 -4.1-13.9 2.4
2020-Jan-28 07:00N 69°24' E 018°54'0 0.0 160 / 211001.5 -4.5-14.0 2.6
2020-Jan-28 06:00N 69°24' E 018°54'0 0.0 140 / 81001.3 -4.7-13.9 2.6
2020-Jan-28 05:00N 69°24' E 018°54'510.9 160 / 171001.7 -4.9-14.9 2.6
2020-Jan-28 04:30N 69°29' E 018°59'510.7
2020-Jan-28 04:00N 69°24' E 018°54'510.9 140 / 141002.2 -4.7-14.7 2.6
2020-Jan-28 03:30N 69°29' E 018°59'510.7
2020-Jan-28 03:00N 69°24' E 018°54'0 0.0 150 / 121002.5 -5.0-15.0 2.5
2020-Jan-28 02:00N 69°24' E 018°54'0 0.0 160 / 81003.2 -5.0-15.7 2.6
2020-Jan-28 01:00N 69°24' E 018°54'5 5.4 170 / 161003.3 -4.5-13.9 2.6
2020-Jan-28 00:00N 69°29' E 018°59'51615.4
2020-Jan-28 00:00N 69°24' E 018°54'0 0.0 160 / 81003.7 -5.0-16.7 2.5
2020-Jan-27 23:00N 69°24' E 018°54'5 5.4 150 / 101004.5 -5.4-16.3 2.5
2020-Jan-27 22:00N 69°29' E 018°59'52769.3
2020-Jan-27 22:00N 69°24' E 018°54'0 0.0 150 / 101004.7 -5.3-16.9 2.5
2020-Jan-27 21:00N 69°24' E 018°54'0 0.0 160 / 81005.0 -5.5-16.3 2.4
2020-Jan-27 20:00N 69°24' E 018°54'0 0.0 160 / 101005.3 -5.5-16.8 2.3
2020-Jan-27 19:00N 69°24' E 018°54'5 5.4 160 / 81005.5 -5.9-16.5 2.4
2020-Jan-27 18:00N 69°29' E 018°59'519387.2
2020-Jan-27 18:00N 69°24' E 018°54'0 0.0 150 / 101006.2 -5.8-17.0 2.4
2020-Jan-27 17:00N 69°24' E 018°54'519389.6 140 / 61006.3 -6.0-16.8 2.2
2020-Jan-27 16:59N 69°29' E 018°59'0 0.0
2020-Jan-27 16:29N 69°29' E 018°59'510.8
2020-Jan-27 16:00N 69°24' E 018°54'5 9.0 160 / 61005.7 -5.9-16.7 2.3
2020-Jan-27 15:23N 69°29' E 018°59'513.5
2020-Jan-27 15:00N 69°24' E 018°54'0 0.0 140 / 81005.8 -5.4-16.9 2.4
2020-Jan-27 14:00N 69°24' E 018°54'0 0.0 140 / 61005.8 -5.4-16.0 2.4
2020-Jan-27 13:00N 69°24' E 018°54'511.2 140 / 121006.0 -4.7-17.9 2.1
2020-Jan-27 12:30N 69°29' E 018°56'5 9.4
2020-Jan-27 12:00N 69°34' E 018°54'4271.4
2020-Jan-27 12:00N 69°30' E 018°54'815.5 150 / 141006.2 -5.0-17.7 3.4
2020-Jan-27 11:30N 69°38' E 018°56'2 3.6
2020-Jan-27 11:00N 69°36' E 018°54'0 0.0 180 / 21007.0 -6.7-16.4 3.2
2020-Jan-27 10:00N 69°36' E 018°54'0 0.0 270 / 21007.2 -6.5-17.0 3.4
2020-Jan-27 09:00N 69°36' E 018°54'0 0.0 180 / 21007.7 -6.5-17.4 3.3
2020-Jan-27 08:00N 69°36' E 018°54'0 0.0 150 / 101008.1 -4.8-17.3 3.8
2020-Jan-27 07:00N 69°36' E 018°54'3 3.3 310 / 21007.8 -6.7-17.6 3.7
2020-Jan-27 06:00N 69°39' E 018°58'3212.6
2020-Jan-27 06:00N 69°36' E 018°54'0 0.0 340 / 41008.6 -7.5-17.4 3.7
2020-Jan-27 05:00N 69°36' E 018°54'3 3.3 340 / 21008.7 -7.0-17.6 3.6
2020-Jan-27 04:00N 69°39' E 018°58'3229.3
2020-Jan-27 04:00N 69°36' E 018°54'0 0.0 250 / 41008.8 -7.5-16.1 3.6
2020-Jan-27 03:00N 69°36' E 018°54'0 0.0 280 / 21009.3 -8.0-15.5 3.5
2020-Jan-27 02:00N 69°36' E 018°54'3 6.7 290 / 21009.7 -8.0-14.4 3.5
2020-Jan-27 01:30N 69°39' E 018°58'3 6.3
2020-Jan-27 01:00N 69°36' E 018°54'0 0.0 210 1010.6 -8.0-14.4 3.4
2020-Jan-27 00:00N 69°36' E 018°54'0 0.0 290 / 21010.8 -8.0-15.5 3.4
2020-Jan-26 23:00N 69°36' E 018°54'3 6.7 320 / 41011.7 -8.0-14.9 3.4
2020-Jan-26 22:30N 69°39' E 018°58'0 0.0
2020-Jan-26 22:00N 69°39' E 018°58'3285.2
2020-Jan-26 22:00N 69°36' E 018°54'3 6.6 190 1012.0 -8.0-13.3 3.3
2020-Jan-26 21:30N 69°39' E 018°58'3 6.4
2020-Jan-26 21:00N 69°36' E 018°54'3 3.3 220 / 21012.3 -7.6-12.8 3.5
2020-Jan-26 20:00N 69°39' E 018°58'3316.0
2020-Jan-26 20:00N 69°36' E 018°54'0 0.0 220 1012.2 -7.7-13.4 3.4
2020-Jan-26 19:00N 69°36' E 018°54'3 6.6 240 / 21012.3 -7.7-14.0 3.9
2020-Jan-26 18:30N 69°39' E 018°58'0 0.0
2020-Jan-26 18:00N 69°39' E 018°58'3334.0
2020-Jan-26 18:00N 69°36' E 018°54'0 0.0 310 / 21012.2 -7.2-12.9 3.8
2020-Jan-26 17:00N 69°36' E 018°54'0 0.0 260 / 41012.2 -7.2-13.0 3.8
2020-Jan-26 16:00N 69°36' E 018°54'3 6.0 220 / 21012.1 -7.3-12.8 3.7
2020-Jan-26 15:27N 69°39' E 018°58'3 7.1
2020-Jan-26 15:00N 69°36' E 018°54'3 6.0 250 / 41011.7 -6.9-13.9 3.6
2020-Jan-26 14:27N 69°39' E 018°58'3 7.1
2020-Jan-26 14:00N 69°36' E 018°54'376.9 290 / 21011.4 -7.4-16.3 3.6
2020-Jan-26 13:57N 69°39' E 018°58'3 3.4
2020-Jan-26 13:00N 69°36' E 018°54'0 0.0 060 / 21011.1 -6.6-14.2 3.5
2020-Jan-26 12:00N 69°36' E 018°54'375.4 280 / 21011.1 -6.4-12.1 3.5
2020-Jan-26 11:57N 69°39' E 018°58'0 0.0
2020-Jan-26 11:27N 69°39' E 018°58'0 0.0
2020-Jan-26 11:00N 69°39' E 018°58'3508.4
2020-Jan-26 11:00N 69°36' E 018°54'0 0.0 110 / 21010.3 -5.7-14.3 3.6
2020-Jan-26 10:00N 69°36' E 018°54'3 9.4 320 / 41009.8 -5.9-13.2 3.6
2020-Jan-26 09:39N 69°39' E 018°58'0 0.0
2020-Jan-26 09:27N 69°39' E 018°58'3 7.1
2020-Jan-26 09:00N 69°36' E 018°54'0 0.0 170 / 21009.4 -6.0-11.1 3.6
2020-Jan-26 08:00N 69°36' E 018°54'0 0.0 230 / 21008.7 -5.7-10.7 3.5
2020-Jan-26 07:00N 69°36' E 018°54'0 0.0 200 / 41008.0 -5.0-11.4 3.8
2020-Jan-26 06:00N 69°36' E 018°54'3 6.5 130 / 41007.2 -5.5-11.5 3.8
2020-Jan-26 05:30N 69°39' E 018°58'3 6.4
2020-Jan-26 05:00N 69°36' E 018°54'0 0.0 320 / 21007.1 -6.1-11.1 3.6
2020-Jan-26 04:00N 69°36' E 018°54'0 0.0 260 / 21006.5 -5.9-11.1 3.6
2020-Jan-26 03:00N 69°36' E 018°54'0 0.0 130 1005.5 -7.0-12.7 3.6
2020-Jan-26 02:00N 69°36' E 018°54'3 6.5 080 / 41005.2 -6.5-12.2 3.5
2020-Jan-26 01:30N 69°39' E 018°58'0 0.0
2020-Jan-26 01:00N 69°39' E 018°58'31670.0
2020-Jan-26 01:00N 69°36' E 018°54'0 0.0 070 / 41005.2 -6.5-13.5 3.5
2020-Jan-26 00:00N 69°36' E 018°54'0 0.0 080 / 41004.8 -6.5-15.1 3.5
2020-Jan-25 23:00N 69°36' E 018°54'3 6.5 110 / 41004.6 -6.0-14.3 3.5
2020-Jan-25 22:30N 69°39' E 018°58'3 6.5
2020-Jan-25 22:00N 69°36' E 018°54'0 0.0 110 / 41004.1 -6.9-15.3 3.5
2020-Jan-25 21:00N 69°36' E 018°54'0 0.0 080 / 41004.1 -6.4-13.7 3.6
2020-Jan-25 20:00N 69°36' E 018°54'0 0.0 050 / 101003.7 -5.0-12.9 3.6
2020-Jan-25 19:00N 69°36' E 018°54'3 6.5 050 / 121003.7 -4.6-12.1 3.6
2020-Jan-25 18:29N 69°39' E 018°58'3 6.5
2020-Jan-25 18:00N 69°36' E 018°54'32338.7 040 / 101003.2 -4.3-12.7 3.8
2020-Jan-25 17:59N 69°39' E 018°58'0 0.0
2020-Jan-25 17:29N 69°39' E 018°58'3 6.5
2020-Jan-25 17:00N 69°36' E 018°54'0 0.0 040 / 161002.6 -3.5-13.4 3.7
2020-Jan-25 16:00N 69°36' E 018°54'31299.3 040 / 171001.6 -2.7-12.0 3.5
2020-Jan-25 15:59N 69°39' E 018°58'3 3.3
2020-Jan-25 15:00N 69°36' E 018°54'31063.0 040 / 161000.5 -2.2-10.4 3.8
2020-Jan-25 14:59N 69°39' E 018°58'3 3.3
2020-Jan-25 14:00N 69°36' E 018°54'3 6.4 040 / 12999.7 -2.0-8.4 3.8
2020-Jan-25 13:29N 69°39' E 018°58'3 6.5
2020-Jan-25 13:00N 69°36' E 018°54'713.6 030 / 14999.0 -2.2-6.8 3.9
2020-Jan-25 12:30N 69°42' E 019°02'2 3.8
2020-Jan-25 12:00N 69°44' E 019°00'2111.7
2020-Jan-25 12:00N 69°42' E 019°00'2 4.5 040 / 8997.8 -1.1-7.3 4.1
2020-Jan-25 11:30N 69°44' E 019°01'3 5.4
2020-Jan-25 11:00N 69°42' E 019°06'2 2.1 030 / 8997.0 -1.5-8.2 4.2
2020-Jan-25 10:00N 69°42' E 019°12'1010.2 020 / 12996.2 -0.4-9.8 3.7
2020-Jan-25 09:00N 69°48' E 019°36'9 9.3 040 / 14995.1 -0.0-8.8 3.9
2020-Jan-25 08:00N 69°53' E 019°58'5730.2
2020-Jan-25 08:00N 69°48' E 019°54'714.8 040 / 16994.0 -0.0-7.9 3.9
2020-Jan-25 07:30N 69°55' E 019°57'2 3.2
2020-Jan-25 07:00N 69°54' E 020°00'1212.2 030 / 19993.1 -0.0-9.1 4.6
2020-Jan-25 06:00N 70°06' E 020°06'1212.2 040 / 17992.2 0.3-9.4 5.4
2020-Jan-25 05:00N 70°18' E 020°00'6 6.0 050 / 21991.2 0.5-8.8 5.5
2020-Jan-25 04:00N 70°24' E 020°00'612.4 050 / 21990.4 0.5-9.2 5.5
2020-Jan-25 03:30N 70°30' E 019°59'2 3.6
2020-Jan-25 03:00N 70°30' E 019°54'6 6.0 060 / 25989.7 0.6-8.7 5.3
2020-Jan-25 02:00N 70°36' E 019°54'1211.8 060 / 29989.0 0.6-9.1 5.7
2020-Jan-25 01:00N 70°48' E 019°56'61211.9
2020-Jan-25 01:00N 70°42' E 019°54'816.5 060 / 27988.3 0.9-7.6 5.9
2020-Jan-25 00:30N 70°50' E 019°56'10 6.7
2020-Jan-24 23:00N 71°00' E 019°54'17 6.9
2020-Jan-24 20:30N 71°17' E 019°51'3 5.2
2020-Jan-24 20:00N 71°20' E 019°50'2 4.6
2020-Jan-24 19:29N 71°22' E 019°49'14 5.6
2020-Jan-24 17:00N 71°36' E 019°42'54 7.8 080 / 29983.7 0.2-1.4 5.9
2020-Jan-24 10:00N 72°30' E 019°24'1212.0 100 / 37981.3 1.1-2.3 5.7
2020-Jan-24 09:00N 72°42' E 019°24'6 6.0 100 / 35981.8 1.1-3.3 5.5
2020-Jan-24 08:00N 72°48' E 019°24'18 9.0 100 / 41981.7 0.6-4.3 5.9
2020-Jan-24 06:00N 73°06' E 019°24'6 6.0 100 / 41981.8 -0.1-3.9 4.7
2020-Jan-24 05:00N 73°12' E 019°24'6 6.2 090 / 43982.2 0.4-5.2 4.9
2020-Jan-24 04:00N 73°18' E 019°18'24 6.0 100 / 41982.5 -0.6-3.0 5.0
2020-Jan-24 00:00N 73°42' E 019°12'12 6.0 090 / 41984.2 -0.2-6.1 4.3
2020-Jan-23 22:00N 73°54' E 019°12'313.1 100 / 41985.3 -0.8-8.5 2.1
2020-Jan-23 21:44N 73°57' E 019°14'21 4.5
2020-Jan-23 17:00N 74°18' E 018°54'4 7.8 100 / 39989.1 -2.6-10.3-1.2
2020-Jan-23 16:27N 74°22' E 018°59'0 0.0
2020-Jan-23 15:29N 74°22' E 018°59'8 5.1
2020-Jan-23 14:00N 74°14' E 019°02'2110.2
2020-Jan-23 12:00N 73°54' E 018°54'17510.3 120 / 31994.7 -2.0-9.6 3.4
2020-Jan-22 19:00N 71°00' E 018°06'6 6.0 310 / 191012.5 -0.5-5.1 6.2
2020-Jan-22 18:00N 70°54' E 018°06'1212.2 320 / 211012.3 -0.3-5.4 6.1
2020-Jan-22 17:00N 70°42' E 018°12'6 6.0 310 / 251012.1 0.4-5.2 6.3
2020-Jan-22 16:00N 70°36' E 018°12'8 8.4 190 / 161012.2 0.1-6.1 6.4
2020-Jan-22 15:00N 70°28' E 018°11'4523.1
2020-Jan-22 15:00N 70°24' E 018°06'6 6.0 360 / 171011.5 0.1-5.3 6.2
2020-Jan-22 14:00N 70°18' E 018°06'7 6.6 310 / 291010.5 1.2-5.2 6.0
2020-Jan-22 13:00N 70°12' E 018°09'6435.8
2020-Jan-22 13:00N 70°06' E 018°06'6 6.0 290 / 191010.7 1.1-5.7 6.4
2020-Jan-22 12:00N 70°00' E 018°06'5 4.8 010 / 141011.0 0.4-6.7 5.7
2020-Jan-22 11:00N 69°57' E 018°16'3297.5
2020-Jan-22 11:00N 69°54' E 018°12'8 8.2 300 / 141011.0 0.3-3.3 4.7
2020-Jan-22 10:00N 69°54' E 018°36'1010.2 310 / 161010.5 -0.1-5.3 4.5
2020-Jan-22 09:00N 69°48' E 019°00'11215.3 270 / 101010.1 -1.8-7.0 4.5
2020-Jan-22 08:59N 69°48' E 019°02'4 8.8
2020-Jan-22 08:30N 69°44' E 019°03'1711.3
2020-Jan-22 07:00N 69°30' E 018°36'1212.1 330 / 61009.1 -0.7-8.7 4.4
2020-Jan-22 06:00N 69°24' E 018°06'6 6.4 340 / 231008.0 -0.1-7.5 4.0
2020-Jan-22 05:00N 69°18' E 018°00'5 4.7 340 / 101007.1 -0.9-4.9 3.5
2020-Jan-22 04:00N 69°13' E 017°57'2242.7
2020-Jan-22 04:00N 69°12' E 017°54'2 5.0 330 / 171005.3 -0.7-2.5 4.0
2020-Jan-22 03:30N 69°10' E 017°58'713.4
2020-Jan-22 03:00N 69°06' E 017°42'1010.5 350 / 161003.8 1.5-5.3 3.9
2020-Jan-22 02:00N 69°00' E 017°18'9 8.8 340 / 121002.7 2.8-5.7 4.1
2020-Jan-22 01:00N 68°54' E 017°00'8 8.1 300 / 121001.1 1.8-0.8 4.4
2020-Jan-22 00:00N 68°47' E 016°49'5667.4
2020-Jan-22 00:00N 68°42' E 016°48'9 8.9 260 / 211000.0 0.5-1.5 4.4
2020-Jan-21 23:00N 68°36' E 016°30'9 8.9 240 / 10998.8 0.2-4.2 3.7
2020-Jan-21 22:00N 68°30' E 016°12'7 7.4 260 / 4997.2 -0.5-3.4 3.7
2020-Jan-21 21:00N 68°24' E 016°00'4 8.0 280 / 4996.4 0.2-2.2 3.8
2020-Jan-21 20:30N 68°20' E 015°56'1019.3
2020-Jan-21 20:00N 68°12' E 015°42'9 9.0 250 / 12995.1 0.8-1.2 4.2
2020-Jan-21 19:00N 68°06' E 015°24'1110.8 260 / 17994.8 0.6-1.3 4.4
2020-Jan-21 18:00N 68°00' E 015°00'1110.8 250 / 23994.9 1.0-1.4 4.8
2020-Jan-21 17:00N 67°54' E 014°36'9 9.1 260 / 16995.1 0.5-2.0 4.8
2020-Jan-21 16:00N 67°48' E 014°18'9 9.1 270 / 19995.7 0.6-2.6 5.6
2020-Jan-21 15:00N 67°42' E 014°00'6 6.0 280 / 27996.5 1.3-3.9 5.6
2020-Jan-21 14:00N 67°36' E 014°00'7 6.9 270 / 29996.2 1.1-2.9 5.5
2020-Jan-21 13:00N 67°36' E 014°18'2283.6
2020-Jan-21 13:00N 67°36' E 014°12'1212.2 280 / 41996.5 1.2-3.0 5.8
2020-Jan-21 12:00N 67°24' E 014°18'3 6.3 280 / 41995.8 2.9-4.3 5.5
2020-Jan-21 11:30N 67°24' E 014°26'612.4
2020-Jan-21 11:00N 67°18' E 014°18'4 8.1 270 / 31997.2 3.0-3.0 5.4
2020-Jan-21 10:30N 67°15' E 014°11'1019.6
2020-Jan-21 10:00N 67°06' E 014°00'8 7.6 270 / 39998.1 2.4-3.0 5.0
2020-Jan-21 09:00N 67°00' E 013°48'1111.1 250 / 39999.2 4.0-4.7 5.2
2020-Jan-21 08:00N 66°54' E 013°24'2 4.3 270 / 331000.1 3.1-4.1 4.9
2020-Jan-21 07:30N 66°52' E 013°21'5 9.8
2020-Jan-21 07:00N 66°48' E 013°16'6378.6
2020-Jan-21 07:00N 66°42' E 013°12'8 7.7 270 / 271001.2 3.7-3.2 5.3
2020-Jan-21 06:00N 66°36' E 013°00'6 6.5 270 / 211002.2 3.4-3.4 5.0
2020-Jan-21 05:00N 66°30' E 012°54'1212.0 260 / 371002.9 1.7-2.2 5.2
2020-Jan-21 04:00N 66°18' E 012°54'21794.9 260 / 331004.3 4.3-3.1 5.3
2020-Jan-21 03:59N 66°20' E 012°57'510.1
2020-Jan-21 03:30N 66°15' E 012°54'510.7
2020-Jan-21 03:00N 66°10' E 012°50'4246.8
2020-Jan-21 03:00N 66°06' E 012°48'9 9.5 270 / 251005.7 1.6-2.9 5.2
2020-Jan-21 02:00N 66°00' E 012°30'4 8.4 280 / 271006.6 3.4-2.6 5.4
2020-Jan-21 01:30N 65°56' E 012°25'5 9.8
2020-Jan-21 01:00N 65°52' E 012°23'4309.7
2020-Jan-21 01:00N 65°48' E 012°18'1212.3 280 / 311005.6 5.7-3.0 5.7
2020-Jan-21 00:00N 65°36' E 012°12'8 7.8 270 / 311005.1 3.7-0.6 5.8
2020-Jan-20 23:00N 65°30' E 012°00'1212.3 270 / 331004.1 6.1 0.2 5.9
2020-Jan-20 22:00N 65°18' E 011°54'2 2.4 260 / 411003.7 6.4 1.2 5.4
2020-Jan-20 21:00N 65°16' E 011°57'4264.7
2020-Jan-20 21:00N 65°12' E 011°54'7 6.5 260 / 311004.7 7.4 2.7 6.2
2020-Jan-20 20:00N 65°06' E 011°48'1414.2 260 / 251005.7 7.2 3.4 5.9
2020-Jan-20 19:00N 64°54' E 011°30'3 6.4 260 / 271006.3 8.3 4.3 5.9
2020-Jan-20 18:30N 64°55' E 011°23'816.2
2020-Jan-20 18:00N 64°48' E 011°12'8 7.7 260 / 251006.8 8.5 5.5 5.2
2020-Jan-20 17:00N 64°44' E 010°57'2176.4
2020-Jan-20 17:00N 64°42' E 010°54'10 9.8 240 / 391006.8 9.4 6.7 6.5
2020-Jan-20 16:00N 64°36' E 010°36'9 9.3 240 / 431007.3 8.8 6.8 7.2
2020-Jan-20 15:00N 64°29' E 010°23'51013.6
2020-Jan-20 15:00N 64°24' E 010°18'10 9.8 240 / 451008.7 9.4 7.0 7.2
2020-Jan-20 14:00N 64°18' E 010°00'4 7.7 240 / 451010.1 9.9 7.3 7.0
2020-Jan-20 13:30N 64°16' E 009°53'1121.8
2020-Jan-20 13:00N 64°06' E 009°42'7 6.9 240 / 471011.3 8.6 6.8 7.6
2020-Jan-20 12:00N 64°01' E 009°33'195.4
2020-Jan-20 12:00N 64°00' E 009°30'1111.0 240 / 451012.3 8.5 6.5 7.1
2020-Jan-20 11:00N 63°50' E 009°20'2155.0
2020-Jan-20 11:00N 63°48' E 009°18'1212.3 240 / 451014.3 9.0 6.7 6.7
2020-Jan-20 10:00N 63°36' E 009°12'4 7.5 240 / 351015.2 9.4 6.3 6.8
2020-Jan-20 09:30N 63°33' E 009°15'612.6
2020-Jan-20 09:01N 63°29' E 009°03'6327.9
2020-Jan-20 09:00N 63°24' E 009°00'1110.7 240 / 431017.3 9.5 6.3 7.0
2020-Jan-20 08:00N 63°24' E 008°36'1111.4 230 / 371019.2 9.0 6.3 7.2
2020-Jan-20 07:00N 63°18' E 008°15'6684.2
2020-Jan-20 07:00N 63°12' E 008°12'10 9.9 220 / 331020.1 9.0 5.8 7.2
2020-Jan-20 06:00N 63°13' E 007°50'1102.7
2020-Jan-20 06:00N 63°12' E 007°48'4 8.0 220 / 331020.5 8.8 6.2 7.8
2020-Jan-20 05:31N 63°14' E 007°41'510.0
2020-Jan-20 05:00N 63°15' E 007°30'3217.1
2020-Jan-20 05:00N 63°12' E 007°30'1110.8 220 / 371021.1 8.0 5.4 7.9
2020-Jan-20 04:00N 63°12' E 007°06'4 9.0 220 / 411021.2 7.8 5.8 7.9
2020-Jan-20 03:30N 63°14' E 006°58'814.8
2020-Jan-20 03:00N 63°12' E 006°42'510.3 220 / 391021.8 7.9 3.7 7.8
2020-Jan-20 02:30N 63°16' E 006°35'816.4
2020-Jan-20 02:00N 63°12' E 006°18'612.5 220 / 411021.4 7.7 6.1 8.1
2020-Jan-20 01:30N 63°17' E 006°09'611.5
2020-Jan-20 01:00N 63°17' E 005°56'1312.6
2020-Jan-20 00:00N 63°12' E 005°30'815.1 210 / 371020.6 8.1 6.6 8.4
2020-Jan-19 23:30N 63°18' E 005°20'2610.3
2020-Jan-19 21:00N 63°18' E 004°23'2010.1
2020-Jan-19 18:59N 63°19' E 003°38'19 3.7
2020-Jan-19 14:00N 63°00' E 003°36'0 0.0 220 / 271026.4 7.8 2.1 8.5
2020-Jan-19 13:00N 63°00' E 003°36'5150.5 220 / 271027.0 7.5 1.9 8.4
2020-Jan-19 12:58N 63°04' E 003°41'1211.9
2020-Jan-19 12:00N 62°54' E 003°54'4 4.0 220 / 231027.9 7.0 0.5 8.3
2020-Jan-19 11:00N 62°58' E 003°55'0 0.7
2020-Jan-19 10:30N 62°58' E 003°55'2 4.8
2020-Jan-19 10:00N 62°56' E 003°59'3244.1
2020-Jan-19 10:00N 62°54' E 003°54'3 2.7 250 / 191028.4 6.2-2.8 8.1
2020-Jan-19 09:00N 62°54' E 004°00'1 2.7 260 / 191029.0 5.7-3.0 8.2
2020-Jan-19 08:30N 62°54' E 004°03'1 2.7
2020-Jan-19 08:00N 62°54' E 004°00'5 5.5 260 / 191028.0 5.6-3.4 8.3
2020-Jan-19 07:00N 62°54' E 003°48'918.0 280 / 211027.0 5.5-3.7 8.4
2020-Jan-19 06:30N 63°03' E 003°44'3 5.4
2020-Jan-19 06:00N 63°00' E 003°42'3 2.1 290 / 251026.0 5.4-4.8 8.5
2020-Jan-19 04:30N 63°01' E 003°49'1 1.9
2020-Jan-19 04:00N 63°00' E 003°48'2 3.3 290 / 291023.7 5.3-4.4 8.4
2020-Jan-19 03:30N 62°60' E 003°51'3 1.2
2020-Jan-19 00:59N 62°57' E 003°55'0 0.8
2020-Jan-19 00:30N 62°57' E 003°55'2 0.9
2020-Jan-18 22:00N 62°55' E 003°58'0 0.7
2020-Jan-18 21:30N 62°55' E 003°59'2 4.6
2020-Jan-18 21:00N 62°54' E 003°54'3 5.2 290 / 391011.7 5.5-0.1 8.6
2020-Jan-18 20:30N 62°54' E 003°60'1 1.2
2020-Jan-18 19:30N 62°53' E 004°02'0 0.3
2020-Jan-18 18:00N 62°53' E 004°02'  
Track history (hours):
 
Tides and Currents Weather Stations Pressure Air Temp Water Temp Dewpoint Dewpoint Depression Visibility Wind Speed Wind Dir Waves Ship Positions

Oceanographic research ship Johan Hjort (Norway)

Detailed information on ship capabilities available from University of Delaware's Ocean Information Center and ARCUS's ALIAS (Arctic Logistics Information and Support) project.

Last reported at 2020-Jan-28 18:00 UTC. Time now 2020-Jan-28 18:58 UTC.
Position N 69°36' E 018°54'.

MMSI: 257139000.

Wind from 190 at 14 knots

Barometer 999.6 mb
Air temperature -3.7 ° C
Dewpoint -12.4 ° C
Water temperature 3.3 ° C

Date/timePositionNaut miles runAvg speedWind from/ knotsBaromVisibWave heightAir tempDewpointWater temp
2020-Jan-28 18:00N 69°36' E 018°54'3162.7 190 / 14999.6 -3.7-12.4 3.3
2020-Jan-28 17:58N 69°39' E 018°58'3 3.3
2020-Jan-28 17:00N 69°36' E 018°54'0 0.0 190 / 12999.3 -3.3-12.8 3.4
2020-Jan-28 16:00N 69°36' E 018°54'6 6.0 160 / 4998.7 -3.1-13.6 3.3
2020-Jan-28 15:00N 69°30' E 018°54'2 1.9 170 / 25999.2 -2.5-12.2 2.7
2020-Jan-28 14:00N 69°29' E 018°59'5563.6
2020-Jan-28 14:00N 69°24' E 018°54'511.0 180 / 21999.1 -3.8-13.1 2.6
2020-Jan-28 13:30N 69°29' E 018°59'510.6
2020-Jan-28 13:00N 69°24' E 018°54'0 0.0 170 / 19999.3 -3.2-13.0 2.7
2020-Jan-28 12:00N 69°24' E 018°54'5 5.4 170 / 17999.3 -3.3-13.1 2.7
2020-Jan-28 11:00N 69°29' E 018°59'5668.6
2020-Jan-28 11:00N 69°24' E 018°54'0 0.0 170 / 21999.7 -3.3-13.2 2.7
2020-Jan-28 10:00N 69°24' E 018°54'0 0.0 170 / 231000.3 -3.8-13.6 2.6
2020-Jan-28 09:00N 69°24' E 018°54'0 0.0 170 / 231000.7 -4.0-13.3 2.5
2020-Jan-28 08:00N 69°24' E 018°54'0 0.0 170 / 161001.2 -4.1-13.9 2.4
2020-Jan-28 07:00N 69°24' E 018°54'0 0.0 160 / 211001.5 -4.5-14.0 2.6
2020-Jan-28 06:00N 69°24' E 018°54'0 0.0 140 / 81001.3 -4.7-13.9 2.6
2020-Jan-28 05:00N 69°24' E 018°54'510.9 160 / 171001.7 -4.9-14.9 2.6
2020-Jan-28 04:30N 69°29' E 018°59'510.7
2020-Jan-28 04:00N 69°24' E 018°54'510.9 140 / 141002.2 -4.7-14.7 2.6
2020-Jan-28 03:30N 69°29' E 018°59'510.7
2020-Jan-28 03:00N 69°24' E 018°54'0 0.0 150 / 121002.5 -5.0-15.0 2.5
2020-Jan-28 02:00N 69°24' E 018°54'0 0.0 160 / 81003.2 -5.0-15.7 2.6
2020-Jan-28 01:00N 69°24' E 018°54'5 5.4 170 / 161003.3 -4.5-13.9 2.6
2020-Jan-28 00:00N 69°29' E 018°59'51615.4
2020-Jan-28 00:00N 69°24' E 018°54'0 0.0 160 / 81003.7 -5.0-16.7 2.5
2020-Jan-27 23:00N 69°24' E 018°54'5 5.4 150 / 101004.5 -5.4-16.3 2.5
2020-Jan-27 22:00N 69°29' E 018°59'52769.3
2020-Jan-27 22:00N 69°24' E 018°54'0 0.0 150 / 101004.7 -5.3-16.9 2.5
2020-Jan-27 21:00N 69°24' E 018°54'0 0.0 160 / 81005.0 -5.5-16.3 2.4
2020-Jan-27 20:00N 69°24' E 018°54'0 0.0 160 / 101005.3 -5.5-16.8 2.3
2020-Jan-27 19:00N 69°24' E 018°54'5 5.4 160 / 81005.5 -5.9-16.5 2.4
2020-Jan-27 18:00N 69°29' E 018°59'519387.2
2020-Jan-27 18:00N 69°24' E 018°54'0 0.0 150 / 101006.2 -5.8-17.0 2.4
2020-Jan-27 17:00N 69°24' E 018°54'519389.6 140 / 61006.3 -6.0-16.8 2.2
2020-Jan-27 16:59N 69°29' E 018°59'0 0.0
2020-Jan-27 16:29N 69°29' E 018°59'510.8
2020-Jan-27 16:00N 69°24' E 018°54'5 9.0 160 / 61005.7 -5.9-16.7 2.3
2020-Jan-27 15:23N 69°29' E 018°59'513.5
2020-Jan-27 15:00N 69°24' E 018°54'0 0.0 140 / 81005.8 -5.4-16.9 2.4
2020-Jan-27 14:00N 69°24' E 018°54'0 0.0 140 / 61005.8 -5.4-16.0 2.4
2020-Jan-27 13:00N 69°24' E 018°54'511.2 140 / 121006.0 -4.7-17.9 2.1
2020-Jan-27 12:30N 69°29' E 018°56'5 9.4
2020-Jan-27 12:00N 69°34' E 018°54'4271.4
2020-Jan-27 12:00N 69°30' E 018°54'815.5 150 / 141006.2 -5.0-17.7 3.4
2020-Jan-27 11:30N 69°38' E 018°56'2 3.6
2020-Jan-27 11:00N 69°36' E 018°54'0 0.0 180 / 21007.0 -6.7-16.4 3.2
2020-Jan-27 10:00N 69°36' E 018°54'0 0.0 270 / 21007.2 -6.5-17.0 3.4
2020-Jan-27 09:00N 69°36' E 018°54'0 0.0 180 / 21007.7 -6.5-17.4 3.3
2020-Jan-27 08:00N 69°36' E 018°54'0 0.0 150 / 101008.1 -4.8-17.3 3.8
2020-Jan-27 07:00N 69°36' E 018°54'3 3.3 310 / 21007.8 -6.7-17.6 3.7
2020-Jan-27 06:00N 69°39' E 018°58'3212.6
2020-Jan-27 06:00N 69°36' E 018°54'0 0.0 340 / 41008.6 -7.5-17.4 3.7
2020-Jan-27 05:00N 69°36' E 018°54'3 3.3 340 / 21008.7 -7.0-17.6 3.6
2020-Jan-27 04:00N 69°39' E 018°58'3229.3
2020-Jan-27 04:00N 69°36' E 018°54'0 0.0 250 / 41008.8 -7.5-16.1 3.6
2020-Jan-27 03:00N 69°36' E 018°54'0 0.0 280 / 21009.3 -8.0-15.5 3.5
2020-Jan-27 02:00N 69°36' E 018°54'3 6.7 290 / 21009.7 -8.0-14.4 3.5
2020-Jan-27 01:30N 69°39' E 018°58'3 6.3
2020-Jan-27 01:00N 69°36' E 018°54'0 0.0 210 1010.6 -8.0-14.4 3.4
2020-Jan-27 00:00N 69°36' E 018°54'0 0.0 290 / 21010.8 -8.0-15.5 3.4
2020-Jan-26 23:00N 69°36' E 018°54'3 6.7 320 / 41011.7 -8.0-14.9 3.4
2020-Jan-26 22:30N 69°39' E 018°58'0 0.0
2020-Jan-26 22:00N 69°39' E 018°58'3285.2
2020-Jan-26 22:00N 69°36' E 018°54'3 6.6 190 1012.0 -8.0-13.3 3.3
2020-Jan-26 21:30N 69°39' E 018°58'3 6.4
2020-Jan-26 21:00N 69°36' E 018°54'3 3.3 220 / 21012.3 -7.6-12.8 3.5
2020-Jan-26 20:00N 69°39' E 018°58'3316.0
2020-Jan-26 20:00N 69°36' E 018°54'0 0.0 220 1012.2 -7.7-13.4 3.4
2020-Jan-26 19:00N 69°36' E 018°54'3 6.6 240 / 21012.3 -7.7-14.0 3.9
2020-Jan-26 18:30N 69°39' E 018°58'0 0.0
2020-Jan-26 18:00N 69°39' E 018°58'3334.0
2020-Jan-26 18:00N 69°36' E 018°54'0 0.0 310 / 21012.2 -7.2-12.9 3.8
2020-Jan-26 17:00N 69°36' E 018°54'0 0.0 260 / 41012.2 -7.2-13.0 3.8
2020-Jan-26 16:00N 69°36' E 018°54'3 6.0 220 / 21012.1 -7.3-12.8 3.7
2020-Jan-26 15:27N 69°39' E 018°58'3 7.1
2020-Jan-26 15:00N 69°36' E 018°54'3 6.0 250 / 41011.7 -6.9-13.9 3.6
2020-Jan-26 14:27N 69°39' E 018°58'3 7.1
2020-Jan-26 14:00N 69°36' E 018°54'376.9 290 / 21011.4 -7.4-16.3 3.6
2020-Jan-26 13:57N 69°39' E 018°58'3 3.4
2020-Jan-26 13:00N 69°36' E 018°54'0 0.0 060 / 21011.1 -6.6-14.2 3.5
2020-Jan-26 12:00N 69°36' E 018°54'375.4 280 / 21011.1 -6.4-12.1 3.5
2020-Jan-26 11:57N 69°39' E 018°58'0 0.0
2020-Jan-26 11:27N 69°39' E 018°58'0 0.0
2020-Jan-26 11:00N 69°39' E 018°58'3508.4
2020-Jan-26 11:00N 69°36' E 018°54'0 0.0 110 / 21010.3 -5.7-14.3 3.6
2020-Jan-26 10:00N 69°36' E 018°54'3 9.4 320 / 41009.8 -5.9-13.2 3.6
2020-Jan-26 09:39N 69°39' E 018°58'0 0.0
2020-Jan-26 09:27N 69°39' E 018°58'3 7.1
2020-Jan-26 09:00N 69°36' E 018°54'0 0.0 170 / 21009.4 -6.0-11.1 3.6
2020-Jan-26 08:00N 69°36' E 018°54'0 0.0 230 / 21008.7 -5.7-10.7 3.5
2020-Jan-26 07:00N 69°36' E 018°54'0 0.0 200 / 41008.0 -5.0-11.4 3.8
2020-Jan-26 06:00N 69°36' E 018°54'3 6.5 130 / 41007.2 -5.5-11.5 3.8
2020-Jan-26 05:30N 69°39' E 018°58'3 6.4
2020-Jan-26 05:00N 69°36' E 018°54'0 0.0 320 / 21007.1 -6.1-11.1 3.6
2020-Jan-26 04:00N 69°36' E 018°54'0 0.0 260 / 21006.5 -5.9-11.1 3.6
2020-Jan-26 03:00N 69°36' E 018°54'0 0.0 130 1005.5 -7.0-12.7 3.6
2020-Jan-26 02:00N 69°36' E 018°54'3 6.5 080 / 41005.2 -6.5-12.2 3.5
2020-Jan-26 01:30N 69°39' E 018°58'0 0.0
2020-Jan-26 01:00N 69°39' E 018°58'31670.0
2020-Jan-26 01:00N 69°36' E 018°54'0 0.0 070 / 41005.2 -6.5-13.5 3.5
2020-Jan-26 00:00N 69°36' E 018°54'0 0.0 080 / 41004.8 -6.5-15.1 3.5
2020-Jan-25 23:00N 69°36' E 018°54'3 6.5 110 / 41004.6 -6.0-14.3 3.5
2020-Jan-25 22:30N 69°39' E 018°58'3 6.5
2020-Jan-25 22:00N 69°36' E 018°54'0 0.0 110 / 41004.1 -6.9-15.3 3.5
2020-Jan-25 21:00N 69°36' E 018°54'0 0.0 080 / 41004.1 -6.4-13.7 3.6
2020-Jan-25 20:00N 69°36' E 018°54'0 0.0 050 / 101003.7 -5.0-12.9 3.6
2020-Jan-25 19:00N 69°36' E 018°54'3 6.5 050 / 121003.7 -4.6-12.1 3.6
2020-Jan-25 18:29N 69°39' E 018°58'3 6.5
2020-Jan-25 18:00N 69°36' E 018°54'32338.7 040 / 101003.2 -4.3-12.7 3.8
2020-Jan-25 17:59N 69°39' E 018°58'0 0.0
2020-Jan-25 17:29N 69°39' E 018°58'3 6.5
2020-Jan-25 17:00N 69°36' E 018°54'0 0.0 040 / 161002.6 -3.5-13.4 3.7
2020-Jan-25 16:00N 69°36' E 018°54'31299.3 040 / 171001.6 -2.7-12.0 3.5
2020-Jan-25 15:59N 69°39' E 018°58'3 3.3
2020-Jan-25 15:00N 69°36' E 018°54'31063.0 040 / 161000.5 -2.2-10.4 3.8
2020-Jan-25 14:59N 69°39' E 018°58'3 3.3
2020-Jan-25 14:00N 69°36' E 018°54'3 6.4 040 / 12999.7 -2.0-8.4 3.8
2020-Jan-25 13:29N 69°39' E 018°58'3 6.5
2020-Jan-25 13:00N 69°36' E 018°54'713.6 030 / 14999.0 -2.2-6.8 3.9
2020-Jan-25 12:30N 69°42' E 019°02'2 3.8
2020-Jan-25 12:00N 69°44' E 019°00'2111.7
2020-Jan-25 12:00N 69°42' E 019°00'2 4.5 040 / 8997.8 -1.1-7.3 4.1
2020-Jan-25 11:30N 69°44' E 019°01'3 5.4
2020-Jan-25 11:00N 69°42' E 019°06'2 2.1 030 / 8997.0 -1.5-8.2 4.2
2020-Jan-25 10:00N 69°42' E 019°12'1010.2 020 / 12996.2 -0.4-9.8 3.7
2020-Jan-25 09:00N 69°48' E 019°36'9 9.3 040 / 14995.1 -0.0-8.8 3.9
2020-Jan-25 08:00N 69°53' E 019°58'5730.2
2020-Jan-25 08:00N 69°48' E 019°54'714.8 040 / 16994.0 -0.0-7.9 3.9
2020-Jan-25 07:30N 69°55' E 019°57'2 3.2
2020-Jan-25 07:00N 69°54' E 020°00'1212.2 030 / 19993.1 -0.0-9.1 4.6
2020-Jan-25 06:00N 70°06' E 020°06'1212.2 040 / 17992.2 0.3-9.4 5.4
2020-Jan-25 05:00N 70°18' E 020°00'6 6.0 050 / 21991.2 0.5-8.8 5.5
2020-Jan-25 04:00N 70°24' E 020°00'612.4 050 / 21990.4 0.5-9.2 5.5
2020-Jan-25 03:30N 70°30' E 019°59'2 3.6
2020-Jan-25 03:00N 70°30' E 019°54'6 6.0 060 / 25989.7 0.6-8.7 5.3
2020-Jan-25 02:00N 70°36' E 019°54'1211.8 060 / 29989.0 0.6-9.1 5.7
2020-Jan-25 01:00N 70°48' E 019°56'61211.9
2020-Jan-25 01:00N 70°42' E 019°54'816.5 060 / 27988.3 0.9-7.6 5.9
2020-Jan-25 00:30N 70°50' E 019°56'10 6.7
2020-Jan-24 23:00N 71°00' E 019°54'17 6.9
2020-Jan-24 20:30N 71°17' E 019°51'3 5.2
2020-Jan-24 20:00N 71°20' E 019°50'2 4.6
2020-Jan-24 19:29N 71°22' E 019°49'14 5.6
2020-Jan-24 17:00N 71°36' E 019°42'54 7.8 080 / 29983.7 0.2-1.4 5.9
2020-Jan-24 10:00N 72°30' E 019°24'1212.0 100 / 37981.3 1.1-2.3 5.7
2020-Jan-24 09:00N 72°42' E 019°24'6 6.0 100 / 35981.8 1.1-3.3 5.5
2020-Jan-24 08:00N 72°48' E 019°24'18 9.0 100 / 41981.7 0.6-4.3 5.9
2020-Jan-24 06:00N 73°06' E 019°24'6 6.0 100 / 41981.8 -0.1-3.9 4.7
2020-Jan-24 05:00N 73°12' E 019°24'6 6.2 090 / 43982.2 0.4-5.2 4.9
2020-Jan-24 04:00N 73°18' E 019°18'24 6.0 100 / 41982.5 -0.6-3.0 5.0
2020-Jan-24 00:00N 73°42' E 019°12'12 6.0 090 / 41984.2 -0.2-6.1 4.3
2020-Jan-23 22:00N 73°54' E 019°12'313.1 100 / 41985.3 -0.8-8.5 2.1
2020-Jan-23 21:44N 73°57' E 019°14'21 4.5
2020-Jan-23 17:00N 74°18' E 018°54'4 7.8 100 / 39989.1 -2.6-10.3-1.2
2020-Jan-23 16:27N 74°22' E 018°59'0 0.0
2020-Jan-23 15:29N 74°22' E 018°59'8 5.1
2020-Jan-23 14:00N 74°14' E 019°02'2110.2
2020-Jan-23 12:00N 73°54' E 018°54'17510.3 120 / 31994.7 -2.0-9.6 3.4
2020-Jan-22 19:00N 71°00' E 018°06'6 6.0 310 / 191012.5 -0.5-5.1 6.2
2020-Jan-22 18:00N 70°54' E 018°06'1212.2 320 / 211012.3 -0.3-5.4 6.1
2020-Jan-22 17:00N 70°42' E 018°12'6 6.0 310 / 251012.1 0.4-5.2 6.3
2020-Jan-22 16:00N 70°36' E 018°12'8 8.4 190 / 161012.2 0.1-6.1 6.4
2020-Jan-22 15:00N 70°28' E 018°11'4523.1
2020-Jan-22 15:00N 70°24' E 018°06'6 6.0 360 / 171011.5 0.1-5.3 6.2
2020-Jan-22 14:00N 70°18' E 018°06'7 6.6 310 / 291010.5 1.2-5.2 6.0
2020-Jan-22 13:00N 70°12' E 018°09'6435.8
2020-Jan-22 13:00N 70°06' E 018°06'6 6.0 290 / 191010.7 1.1-5.7 6.4
2020-Jan-22 12:00N 70°00' E 018°06'5 4.8 010 / 141011.0 0.4-6.7 5.7
2020-Jan-22 11:00N 69°57' E 018°16'3297.5
2020-Jan-22 11:00N 69°54' E 018°12'8 8.2 300 / 141011.0 0.3-3.3 4.7
2020-Jan-22 10:00N 69°54' E 018°36'1010.2 310 / 161010.5 -0.1-5.3 4.5
2020-Jan-22 09:00N 69°48' E 019°00'11215.3 270 / 101010.1 -1.8-7.0 4.5
2020-Jan-22 08:59N 69°48' E 019°02'4 8.8
2020-Jan-22 08:30N 69°44' E 019°03'1711.3
2020-Jan-22 07:00N 69°30' E 018°36'1212.1 330 / 61009.1 -0.7-8.7 4.4
2020-Jan-22 06:00N 69°24' E 018°06'6 6.4 340 / 231008.0 -0.1-7.5 4.0
2020-Jan-22 05:00N 69°18' E 018°00'5 4.7 340 / 101007.1 -0.9-4.9 3.5
2020-Jan-22 04:00N 69°13' E 017°57'2242.7
2020-Jan-22 04:00N 69°12' E 017°54'2 5.0 330 / 171005.3 -0.7-2.5 4.0
2020-Jan-22 03:30N 69°10' E 017°58'713.4
2020-Jan-22 03:00N 69°06' E 017°42'1010.5 350 / 161003.8 1.5-5.3 3.9
2020-Jan-22 02:00N 69°00' E 017°18'9 8.8 340 / 121002.7 2.8-5.7 4.1
2020-Jan-22 01:00N 68°54' E 017°00'8 8.1 300 / 121001.1 1.8-0.8 4.4
2020-Jan-22 00:00N 68°47' E 016°49'5667.4
2020-Jan-22 00:00N 68°42' E 016°48'9 8.9 260 / 211000.0 0.5-1.5 4.4
2020-Jan-21 23:00N 68°36' E 016°30'9 8.9 240 / 10998.8 0.2-4.2 3.7
2020-Jan-21 22:00N 68°30' E 016°12'7 7.4 260 / 4997.2 -0.5-3.4 3.7
2020-Jan-21 21:00N 68°24' E 016°00'4 8.0 280 / 4996.4 0.2-2.2 3.8
2020-Jan-21 20:30N 68°20' E 015°56'1019.3
2020-Jan-21 20:00N 68°12' E 015°42'9 9.0 250 / 12995.1 0.8-1.2 4.2
2020-Jan-21 19:00N 68°06' E 015°24'1110.8 260 / 17994.8 0.6-1.3 4.4
2020-Jan-21 18:00N 68°00' E 015°00'1110.8 250 / 23994.9 1.0-1.4 4.8
2020-Jan-21 17:00N 67°54' E 014°36'9 9.1 260 / 16995.1 0.5-2.0 4.8
2020-Jan-21 16:00N 67°48' E 014°18'9 9.1 270 / 19995.7 0.6-2.6 5.6
2020-Jan-21 15:00N 67°42' E 014°00'6 6.0 280 / 27996.5 1.3-3.9 5.6
2020-Jan-21 14:00N 67°36' E 014°00'7 6.9 270 / 29996.2 1.1-2.9 5.5
2020-Jan-21 13:00N 67°36' E 014°18'2283.6
2020-Jan-21 13:00N 67°36' E 014°12'1212.2 280 / 41996.5 1.2-3.0 5.8
2020-Jan-21 12:00N 67°24' E 014°18'3 6.3 280 / 41995.8 2.9-4.3 5.5
2020-Jan-21 11:30N 67°24' E 014°26'612.4
2020-Jan-21 11:00N 67°18' E 014°18'4 8.1 270 / 31997.2 3.0-3.0 5.4
2020-Jan-21 10:30N 67°15' E 014°11'1019.6
2020-Jan-21 10:00N 67°06' E 014°00'8 7.6 270 / 39998.1 2.4-3.0 5.0
2020-Jan-21 09:00N 67°00' E 013°48'1111.1 250 / 39999.2 4.0-4.7 5.2
2020-Jan-21 08:00N 66°54' E 013°24'2 4.3 270 / 331000.1 3.1-4.1 4.9
2020-Jan-21 07:30N 66°52' E 013°21'5 9.8
2020-Jan-21 07:00N 66°48' E 013°16'6378.6
2020-Jan-21 07:00N 66°42' E 013°12'8 7.7 270 / 271001.2 3.7-3.2 5.3
2020-Jan-21 06:00N 66°36' E 013°00'6 6.5 270 / 211002.2 3.4-3.4 5.0
2020-Jan-21 05:00N 66°30' E 012°54'1212.0 260 / 371002.9 1.7-2.2 5.2
2020-Jan-21 04:00N 66°18' E 012°54'21794.9 260 / 331004.3 4.3-3.1 5.3
2020-Jan-21 03:59N 66°20' E 012°57'510.1
2020-Jan-21 03:30N 66°15' E 012°54'510.7
2020-Jan-21 03:00N 66°10' E 012°50'4246.8
2020-Jan-21 03:00N 66°06' E 012°48'9 9.5 270 / 251005.7 1.6-2.9 5.2
2020-Jan-21 02:00N 66°00' E 012°30'4 8.4 280 / 271006.6 3.4-2.6 5.4
2020-Jan-21 01:30N 65°56' E 012°25'5 9.8
2020-Jan-21 01:00N 65°52' E 012°23'4309.7
2020-Jan-21 01:00N 65°48' E 012°18'1212.3 280 / 311005.6 5.7-3.0 5.7
2020-Jan-21 00:00N 65°36' E 012°12'8 7.8 270 / 311005.1 3.7-0.6 5.8
2020-Jan-20 23:00N 65°30' E 012°00'1212.3 270 / 331004.1 6.1 0.2 5.9
2020-Jan-20 22:00N 65°18' E 011°54'2 2.4 260 / 411003.7 6.4 1.2 5.4
2020-Jan-20 21:00N 65°16' E 011°57'4264.7
2020-Jan-20 21:00N 65°12' E 011°54'7 6.5 260 / 311004.7 7.4 2.7 6.2
2020-Jan-20 20:00N 65°06' E 011°48'1414.2 260 / 251005.7 7.2 3.4 5.9
2020-Jan-20 19:00N 64°54' E 011°30'3 6.4 260 / 271006.3 8.3 4.3 5.9
2020-Jan-20 18:30N 64°55' E 011°23'816.2
2020-Jan-20 18:00N 64°48' E 011°12'8 7.7 260 / 251006.8 8.5 5.5 5.2
2020-Jan-20 17:00N 64°44' E 010°57'2176.4
2020-Jan-20 17:00N 64°42' E 010°54'10 9.8 240 / 391006.8 9.4 6.7 6.5
2020-Jan-20 16:00N 64°36' E 010°36'9 9.3 240 / 431007.3 8.8 6.8 7.2
2020-Jan-20 15:00N 64°29' E 010°23'51013.6
2020-Jan-20 15:00N 64°24' E 010°18'10 9.8 240 / 451008.7 9.4 7.0 7.2
2020-Jan-20 14:00N 64°18' E 010°00'4 7.7 240 / 451010.1 9.9 7.3 7.0
2020-Jan-20 13:30N 64°16' E 009°53'1121.8
2020-Jan-20 13:00N 64°06' E 009°42'7 6.9 240 / 471011.3 8.6 6.8 7.6
2020-Jan-20 12:00N 64°01' E 009°33'195.4
2020-Jan-20 12:00N 64°00' E 009°30'1111.0 240 / 451012.3 8.5 6.5 7.1
2020-Jan-20 11:00N 63°50' E 009°20'2155.0
2020-Jan-20 11:00N 63°48' E 009°18'1212.3 240 / 451014.3 9.0 6.7 6.7
2020-Jan-20 10:00N 63°36' E 009°12'4 7.5 240 / 351015.2 9.4 6.3 6.8
2020-Jan-20 09:30N 63°33' E 009°15'612.6
2020-Jan-20 09:01N 63°29' E 009°03'6327.9
2020-Jan-20 09:00N 63°24' E 009°00'1110.7 240 / 431017.3 9.5 6.3 7.0
2020-Jan-20 08:00N 63°24' E 008°36'1111.4 230 / 371019.2 9.0 6.3 7.2
2020-Jan-20 07:00N 63°18' E 008°15'6684.2
2020-Jan-20 07:00N 63°12' E 008°12'10 9.9 220 / 331020.1 9.0 5.8 7.2
2020-Jan-20 06:00N 63°13' E 007°50'1102.7
2020-Jan-20 06:00N 63°12' E 007°48'4 8.0 220 / 331020.5 8.8 6.2 7.8
2020-Jan-20 05:31N 63°14' E 007°41'510.0
2020-Jan-20 05:00N 63°15' E 007°30'3217.1
2020-Jan-20 05:00N 63°12' E 007°30'1110.8 220 / 371021.1 8.0 5.4 7.9
2020-Jan-20 04:00N 63°12' E 007°06'4 9.0 220 / 411021.2 7.8 5.8 7.9
2020-Jan-20 03:30N 63°14' E 006°58'814.8
2020-Jan-20 03:00N 63°12' E 006°42'510.3 220 / 391021.8 7.9 3.7 7.8
2020-Jan-20 02:30N 63°16' E 006°35'816.4
2020-Jan-20 02:00N 63°12' E 006°18'612.5 220 / 411021.4 7.7 6.1 8.1
2020-Jan-20 01:30N 63°17' E 006°09'611.5
2020-Jan-20 01:00N 63°17' E 005°56'1312.6
2020-Jan-20 00:00N 63°12' E 005°30'815.1 210 / 371020.6 8.1 6.6 8.4
2020-Jan-19 23:30N 63°18' E 005°20'2610.3
2020-Jan-19 21:00N 63°18' E 004°23'2010.1
2020-Jan-19 18:59N 63°19' E 003°38'19 3.7
2020-Jan-19 14:00N 63°00' E 003°36'0 0.0 220 / 271026.4 7.8 2.1 8.5
2020-Jan-19 13:00N 63°00' E 003°36'5150.5 220 / 271027.0 7.5 1.9 8.4
2020-Jan-19 12:58N 63°04' E 003°41'1211.9
2020-Jan-19 12:00N 62°54' E 003°54'4 4.0 220 / 231027.9 7.0 0.5 8.3
2020-Jan-19 11:00N 62°58' E 003°55'0 0.7
2020-Jan-19 10:30N 62°58' E 003°55'2 4.8
2020-Jan-19 10:00N 62°56' E 003°59'3244.1
2020-Jan-19 10:00N 62°54' E 003°54'3 2.7 250 / 191028.4 6.2-2.8 8.1
2020-Jan-19 09:00N 62°54' E 004°00'1 2.7 260 / 191029.0 5.7-3.0 8.2
2020-Jan-19 08:30N 62°54' E 004°03'1 2.7
2020-Jan-19 08:00N 62°54' E 004°00'5 5.5 260 / 191028.0 5.6-3.4 8.3
2020-Jan-19 07:00N 62°54' E 003°48'918.0 280 / 211027.0 5.5-3.7 8.4
2020-Jan-19 06:30N 63°03' E 003°44'3 5.4
2020-Jan-19 06:00N 63°00' E 003°42'3 2.1 290 / 251026.0 5.4-4.8 8.5
2020-Jan-19 04:30N 63°01' E 003°49'1 1.9
2020-Jan-19 04:00N 63°00' E 003°48'2 3.3 290 / 291023.7 5.3-4.4 8.4
2020-Jan-19 03:30N 62°60' E 003°51'3 1.2
2020-Jan-19 00:59N 62°57' E 003°55'0 0.8
2020-Jan-19 00:30N 62°57' E 003°55'2 0.9
2020-Jan-18 22:00N 62°55' E 003°58'0 0.7
2020-Jan-18 21:30N 62°55' E 003°59'2 4.6
2020-Jan-18 21:00N 62°54' E 003°54'3 5.2 290 / 391011.7 5.5-0.1 8.6
2020-Jan-18 20:30N 62°54' E 003°60'1 1.2
2020-Jan-18 19:30N 62°53' E 004°02'0 0.3
2020-Jan-18 18:00N 62°53' E 004°02'  

Dump ship's entire track history